createdAt,value
2022-09-26T00:00:22.459Z,2.40
2022-09-26T00:02:49.910Z,2.70
2022-09-26T00:05:17.427Z,3.05
2022-09-26T00:07:44.810Z,2.58
2022-09-26T00:10:12.159Z,2.70
2022-09-26T00:12:40.903Z,2.42
2022-09-26T00:15:08.676Z,2.92
2022-09-26T00:17:36.047Z,2.72
2022-09-26T00:20:03.378Z,2.85
2022-09-26T00:22:30.747Z,2.60
2022-09-26T00:24:58.139Z,2.50
2022-09-26T00:27:25.460Z,3.10
2022-09-26T00:29:54.179Z,2.50
2022-09-26T00:32:21.652Z,2.20
2022-09-26T00:34:49.005Z,2.10
2022-09-26T00:37:16.391Z,2.00
2022-09-26T00:39:43.866Z,2.10
2022-09-26T00:42:11.750Z,1.95
2022-09-26T00:44:42.589Z,2.03
2022-09-26T00:47:18.696Z,2.00
2022-09-26T00:49:46.319Z,2.20
2022-09-26T00:52:14.992Z,1.83
2022-09-26T00:54:45.104Z,2.53
2022-09-26T00:57:15.077Z,2.30
2022-09-26T00:59:44.101Z,1.90
2022-09-26T01:02:12.284Z,1.63
2022-09-26T01:04:42.335Z,1.77
2022-09-26T01:07:11.751Z,2.00
2022-09-26T01:09:39.529Z,1.80
2022-09-26T01:12:08.521Z,1.73
2022-09-26T01:14:36.513Z,2.28
2022-09-26T01:17:05.060Z,2.08
2022-09-26T01:19:36.089Z,2.40
2022-09-26T01:24:39.234Z,1.80
2022-09-26T01:27:24.264Z,1.90
2022-09-26T01:30:15.497Z,1.70
2022-09-26T01:32:57.800Z,2.00
2022-09-26T01:35:35.460Z,1.65
2022-09-26T01:38:10.859Z,2.10
2022-09-26T01:40:43.468Z,1.75
2022-09-26T01:43:14.680Z,1.85
2022-09-26T01:45:47.153Z,1.95
2022-09-26T01:48:18.325Z,2.17
2022-09-26T01:50:49.367Z,2.10
2022-09-26T01:53:18.623Z,2.03
2022-09-26T01:55:47.255Z,1.83
2022-09-26T01:58:18.192Z,2.10
2022-09-26T02:03:14.389Z,1.90
2022-09-26T02:05:43.929Z,2.25
2022-09-26T02:08:16.093Z,1.73
2022-09-26T02:10:45.953Z,2.05
2022-09-26T02:13:15.787Z,2.17
2022-09-26T02:15:45.079Z,1.67
2022-09-26T02:18:14.019Z,1.65
2022-09-26T02:20:44.194Z,1.90
2022-09-26T02:23:12.896Z,2.30
2022-09-26T02:25:40.277Z,2.40
2022-09-26T02:28:07.746Z,1.90
2022-09-26T02:30:35.198Z,1.45
2022-09-26T02:33:02.688Z,1.90
2022-09-26T02:35:47.620Z,1.92
2022-09-26T02:38:17.339Z,1.80
2022-09-26T02:40:48.758Z,1.80
2022-09-26T02:43:27.851Z,1.98
2022-09-26T02:46:01.401Z,1.98
2022-09-26T02:48:35.641Z,1.73
2022-09-26T02:51:21.505Z,1.73
2022-09-26T02:53:58.178Z,1.98
2022-09-26T02:56:29.994Z,2.10
2022-09-26T02:59:02.402Z,1.70
2022-09-26T03:01:32.845Z,1.80
2022-09-26T03:04:01.759Z,1.80
2022-09-26T03:06:33.753Z,1.70
2022-09-26T03:09:03.522Z,1.77
2022-09-26T03:11:31.347Z,1.40
2022-09-26T03:13:59.309Z,1.73
2022-09-26T03:16:29.535Z,1.92
2022-09-26T03:18:59.477Z,1.90
2022-09-26T03:21:27.083Z,1.92
2022-09-26T03:23:56.228Z,1.90
2022-09-26T03:26:26.995Z,2.22
2022-09-26T03:28:56.204Z,2.08
2022-09-26T03:31:24.784Z,2.83
2022-09-26T03:33:52.534Z,2.30
2022-09-26T03:36:19.927Z,2.38
2022-09-26T03:38:47.299Z,2.40
2022-09-26T03:41:14.702Z,2.40
2022-09-26T03:43:43.603Z,2.42
2022-09-26T03:46:12.437Z,2.38
2022-09-26T03:48:40.230Z,2.40
2022-09-26T03:51:08.577Z,2.30
2022-09-26T03:53:36.627Z,2.10
2022-09-26T03:56:05.064Z,2.53
2022-09-26T03:58:32.414Z,2.13
2022-09-26T04:01:04.922Z,2.35
2022-09-26T04:03:33.633Z,2.60
2022-09-26T04:06:01.003Z,2.25
2022-09-26T04:08:28.943Z,2.58
2022-09-26T04:11:00.960Z,2.40
2022-09-26T04:13:50.033Z,2.33
2022-09-26T04:16:17.244Z,2.90
2022-09-26T04:18:44.611Z,2.30
2022-09-26T04:21:14.050Z,2.90
2022-09-26T04:23:42.234Z,2.30
2022-09-26T04:26:10.606Z,3.22
2022-09-26T04:28:38.180Z,2.83
2022-09-26T04:31:06.533Z,2.40
2022-09-26T04:33:35.352Z,2.55
2022-09-26T04:36:03.307Z,2.72
2022-09-26T04:38:32.504Z,3.17
2022-09-26T04:41:03.652Z,3.05
2022-09-26T04:43:31.407Z,2.65
2022-09-26T04:45:58.972Z,2.97
2022-09-26T04:48:26.315Z,2.90
2022-09-26T04:50:55.146Z,2.83
2022-09-26T04:53:23.107Z,2.88
2022-09-26T04:55:50.914Z,3.17
2022-09-26T04:58:18.352Z,2.97
2022-09-26T05:00:47.599Z,2.85
2022-09-26T05:03:15.510Z,2.95
2022-09-26T05:05:45.097Z,3.28
2022-09-26T05:08:14.198Z,3.05
2022-09-26T05:10:41.587Z,3.20
2022-09-26T05:13:09.550Z,3.55
2022-09-26T05:15:40.082Z,3.50
2022-09-26T05:18:08.718Z,3.30
2022-09-26T05:20:36.405Z,3.40
2022-09-26T05:23:04.474Z,3.38
2022-09-26T05:25:54.749Z,3.13
2022-09-26T05:28:22.104Z,3.05
2022-09-26T05:30:51.243Z,3.35
2022-09-26T05:33:19.292Z,3.63
2022-09-26T05:35:49.756Z,3.47
2022-09-26T05:38:17.120Z,3.40
2022-09-26T05:40:57.040Z,3.38
2022-09-26T05:43:24.662Z,3.90
2022-09-26T05:45:52.144Z,3.63
2022-09-26T05:48:19.526Z,3.30
2022-09-26T05:50:46.937Z,3.33
2022-09-26T05:53:14.376Z,3.35
2022-09-26T05:55:42.075Z,3.40
2022-09-26T05:58:10.893Z,3.38
2022-09-26T06:00:38.695Z,3.60
2022-09-26T06:03:06.099Z,3.70
2022-09-26T06:05:34.179Z,3.33
2022-09-26T06:08:02.524Z,3.70
2022-09-26T06:10:31.176Z,3.72
2022-09-26T06:13:01.059Z,3.78
2022-09-26T06:15:30.142Z,3.60
2022-09-26T06:18:01.044Z,3.75
2022-09-26T06:20:28.628Z,3.80
2022-09-26T06:22:56.055Z,3.40
2022-09-26T06:25:23.553Z,3.25
2022-09-26T06:27:51.627Z,2.80
2022-09-26T06:30:21.806Z,3.20
2022-09-26T06:32:52.349Z,3.40
2022-09-26T06:35:20.292Z,3.40
2022-09-26T06:37:47.903Z,3.35
2022-09-26T06:40:15.718Z,3.30
2022-09-26T06:42:43.396Z,3.13
2022-09-26T06:45:11.449Z,2.85
2022-09-26T06:47:39.039Z,3.28
2022-09-26T06:50:08.781Z,3.35
2022-09-26T06:52:36.125Z,2.53
2022-09-26T06:55:04.019Z,2.70
2022-09-26T06:57:37.492Z,2.80
2022-09-26T07:00:05.049Z,3.05
2022-09-26T07:02:32.499Z,3.00
2022-09-26T07:05:00.176Z,2.80
2022-09-26T07:07:28.906Z,2.70
2022-09-26T07:09:57.158Z,3.33
2022-09-26T07:12:24.980Z,2.92
2022-09-26T07:14:53.740Z,2.63
2022-09-26T07:17:22.743Z,2.92
2022-09-26T07:19:52.674Z,2.83
2022-09-26T07:22:20.040Z,2.60
2022-09-26T07:24:50.549Z,2.70
2022-09-26T07:27:18.122Z,2.70
2022-09-26T07:29:45.873Z,2.78
2022-09-26T07:32:13.217Z,2.85
2022-09-26T07:34:41.710Z,2.95
2022-09-26T07:37:09.216Z,2.80
2022-09-26T07:39:36.573Z,2.72
2022-09-26T07:42:05.578Z,3.08
2022-09-26T07:47:37.931Z,3.00
2022-09-26T07:50:16.425Z,3.53
2022-09-26T07:52:44.859Z,3.40
2022-09-26T07:55:13.370Z,2.72
2022-09-26T07:57:42.097Z,3.80
2022-09-26T08:00:12.734Z,3.30
2022-09-26T08:02:42.536Z,3.08
2022-09-26T08:05:11.299Z,3.40
2022-09-26T08:07:39.087Z,3.38
2022-09-26T08:10:07.266Z,2.90
2022-09-26T08:12:38.448Z,3.28
2022-09-26T08:15:08.497Z,3.58
2022-09-26T08:17:35.959Z,2.80
2022-09-26T08:20:03.646Z,3.30
2022-09-26T08:22:31.057Z,3.70
2022-09-26T08:24:58.812Z,3.55
2022-09-26T08:27:26.376Z,2.80
2022-09-26T08:29:54.145Z,2.90
2022-09-26T08:32:23.067Z,2.35
2022-09-26T08:34:52.526Z,3.03
2022-09-26T08:37:20.971Z,2.60
2022-09-26T08:39:48.892Z,2.28
2022-09-26T08:42:28.538Z,2.50
2022-09-26T08:45:12.525Z,2.60
2022-09-26T08:47:46.973Z,3.38
2022-09-26T08:50:17.368Z,2.72
2022-09-26T08:52:47.256Z,2.90
2022-09-26T08:55:16.782Z,2.90
2022-09-26T08:57:47.286Z,1.95
2022-09-26T09:00:20.067Z,2.53
2022-09-26T09:02:55.983Z,2.33
2022-09-26T09:05:25.393Z,2.40
2022-09-26T09:07:54.938Z,1.90
2022-09-26T09:10:25.668Z,1.80
2022-09-26T09:15:28.836Z,1.85
2022-09-26T09:18:03.113Z,1.70
2022-09-26T09:20:35.021Z,1.77
2022-09-26T09:23:09.051Z,2.13
2022-09-26T09:25:39.674Z,2.25
2022-09-26T09:30:41.136Z,1.40
2022-09-26T09:33:13.498Z,1.15
2022-09-26T09:35:42.270Z,1.15
2022-09-26T09:38:11.302Z,1.00
2022-09-26T09:40:40.752Z,1.00
2022-09-26T09:43:12.036Z,1.15
2022-09-26T09:45:43.042Z,1.00
2022-09-26T09:48:13.371Z,0.90
2022-09-26T09:50:45.429Z,0.88
2022-09-26T09:53:20.056Z,0.80
2022-09-26T09:55:52.934Z,0.93
2022-09-26T09:58:35.279Z,0.80
2022-09-26T10:01:09.730Z,1.02
2022-09-26T10:03:41.899Z,0.88
2022-09-26T10:06:44.488Z,0.95
2022-09-26T10:09:39.527Z,0.90
2022-09-26T10:11:53.417Z,0.80
2022-09-26T10:14:25.125Z,0.88
2022-09-26T10:17:11.512Z,0.85
2022-09-26T10:19:41.316Z,0.90
2022-09-26T10:22:15.261Z,0.90
2022-09-26T10:24:43.154Z,0.70
2022-09-26T10:27:14.932Z,0.60
2022-09-26T10:29:42.344Z,0.82
2022-09-26T10:32:11.261Z,0.77
2022-09-26T10:34:40.495Z,0.75
2022-09-26T10:37:28.863Z,0.70
2022-09-26T10:40:14.738Z,0.60
2022-09-26T10:42:43.109Z,0.70
2022-09-26T10:45:13.547Z,0.70
2022-09-26T10:47:41.765Z,0.70
2022-09-26T10:50:11.835Z,0.68
2022-09-26T10:52:41.215Z,0.50
2022-09-26T10:55:10.685Z,0.60
2022-09-26T10:57:39.838Z,0.50
2022-09-26T11:00:07.981Z,0.60
2022-09-26T11:02:36.149Z,0.50
2022-09-26T11:05:23.886Z,0.75
2022-09-26T11:07:53.250Z,0.90
2022-09-26T11:10:24.999Z,0.70
2022-09-26T11:12:56.572Z,0.60
2022-09-26T11:15:24.323Z,0.70
2022-09-26T11:17:52.443Z,0.82
2022-09-26T11:20:33.157Z,0.82
2022-09-26T11:23:06.593Z,0.70
2022-09-26T11:25:40.690Z,0.70
2022-09-26T11:28:11.554Z,0.65
2022-09-26T11:30:41.554Z,1.25
2022-09-26T11:33:12.288Z,1.00
2022-09-26T11:38:18.679Z,0.80
2022-09-26T11:41:07.933Z,0.60
2022-09-26T11:43:39.505Z,0.68
2022-09-26T11:46:16.477Z,0.90
2022-09-26T11:49:10.554Z,0.85
2022-09-26T11:51:46.046Z,0.80
2022-09-26T11:54:23.442Z,0.70
2022-09-26T11:56:55.115Z,0.60
2022-09-26T11:59:37.961Z,0.80
2022-09-26T12:02:17.541Z,0.90
2022-09-26T12:04:55.725Z,0.65
2022-09-26T12:07:29.017Z,0.90
2022-09-26T12:10:11.263Z,1.40
2022-09-26T12:12:43.704Z,0.80
2022-09-26T12:15:21.830Z,0.70
2022-09-26T12:17:56.727Z,0.90
2022-09-26T12:20:28.984Z,0.95
2022-09-26T12:23:00.547Z,0.63
2022-09-26T12:25:34.366Z,0.80
2022-09-26T12:28:10.555Z,0.75
2022-09-26T12:30:42.410Z,0.65
2022-09-26T12:33:21.356Z,0.70
2022-09-26T12:35:53.155Z,0.68
2022-09-26T12:38:33.440Z,0.80
2022-09-26T12:41:06.722Z,0.55
2022-09-26T12:43:48.987Z,0.73
2022-09-26T12:46:28.306Z,0.80
2022-09-26T12:49:10.189Z,0.50
2022-09-26T12:51:42.842Z,0.65
2022-09-26T12:54:33.029Z,0.80
2022-09-26T12:59:38.847Z,0.90
2022-09-26T13:02:32.365Z,0.60
2022-09-26T13:05:08.335Z,0.65
2022-09-26T13:07:42.449Z,0.80
2022-09-26T13:10:27.061Z,0.60
2022-09-26T13:13:07.112Z,0.98
2022-09-26T13:15:36.565Z,0.77
2022-09-26T13:18:07.077Z,1.30
2022-09-26T13:20:40.780Z,0.50
2022-09-26T13:23:10.156Z,0.70
2022-09-26T13:25:44.824Z,0.60
2022-09-26T13:28:17.560Z,0.75
2022-09-26T13:30:47.373Z,0.52
2022-09-26T13:33:18.366Z,0.70
2022-09-26T13:35:48.668Z,1.30
2022-09-26T13:38:23.276Z,0.75
2022-09-26T13:40:53.671Z,0.77
2022-09-26T13:43:25.693Z,0.80
2022-09-26T13:45:58.498Z,1.30
2022-09-26T13:48:31.243Z,1.30
2022-09-26T13:51:02.623Z,0.82
2022-09-26T13:53:33.308Z,0.75
2022-09-26T13:56:19.939Z,0.70
2022-09-26T13:58:47.946Z,0.60
2022-09-26T14:01:25.793Z,1.70
2022-09-26T14:04:17.491Z,0.60
2022-09-26T14:06:59.851Z,0.60
2022-09-26T14:09:39.710Z,1.23
2022-09-26T14:12:21.279Z,1.08
2022-09-26T14:14:52.855Z,0.85
2022-09-26T14:17:40.979Z,0.90
2022-09-26T14:20:15.910Z,1.40
2022-09-26T14:22:50.653Z,1.10
2022-09-26T14:25:32.920Z,1.88
2022-09-26T14:28:12.433Z,1.35
2022-09-26T14:30:39.840Z,0.80
2022-09-26T14:33:12.255Z,2.00
2022-09-26T14:35:39.707Z,0.77
2022-09-26T14:38:10.161Z,0.73
2022-09-26T14:40:38.226Z,0.80
2022-09-26T14:43:11.827Z,0.85
2022-09-26T14:45:48.891Z,1.10
2022-09-26T14:48:26.048Z,0.82
2022-09-26T14:51:02.572Z,0.80
2022-09-26T14:53:34.786Z,0.80
2022-09-26T14:56:03.604Z,0.82
2022-09-26T14:58:32.279Z,0.60
2022-09-26T15:01:03.467Z,0.50
2022-09-26T15:03:31.455Z,0.80
2022-09-26T15:05:59.568Z,0.90
2022-09-26T15:08:28.035Z,0.50
2022-09-26T15:10:56.873Z,1.02
2022-09-26T15:13:29.469Z,0.75
2022-09-26T15:16:00.495Z,0.70
2022-09-26T15:18:34.587Z,0.60
2022-09-26T15:21:04.926Z,0.88
2022-09-26T15:23:33.695Z,0.80
2022-09-26T15:26:02.634Z,0.98
2022-09-26T15:28:31.023Z,1.17
2022-09-26T15:31:18.147Z,0.70
2022-09-26T15:33:48.096Z,0.60
2022-09-26T15:36:17.179Z,0.73
2022-09-26T15:38:47.268Z,0.80
2022-09-26T15:41:16.113Z,0.75
2022-09-26T15:43:42.724Z,0.77
2022-09-26T15:46:20.594Z,0.95
2022-09-26T15:48:49.484Z,0.80
2022-09-26T15:51:19.096Z,1.20
2022-09-26T15:53:48.023Z,1.05
2022-09-26T15:56:18.178Z,0.70
2022-09-26T15:58:47.477Z,0.80
2022-09-26T16:01:15.965Z,0.77
2022-09-26T16:03:55.036Z,0.70
2022-09-26T16:06:24.654Z,0.90
2022-09-26T16:08:54.107Z,0.63
2022-09-26T16:11:21.578Z,0.80
2022-09-26T16:13:50.210Z,0.77
2022-09-26T16:16:19.708Z,0.75
2022-09-26T16:18:48.215Z,0.90
2022-09-26T16:21:18.359Z,0.85
2022-09-26T16:23:46.331Z,0.80
2022-09-26T16:26:21.629Z,0.82
2022-09-26T16:28:52.841Z,0.90
2022-09-26T16:31:24.531Z,0.95
2022-09-26T16:33:53.227Z,0.80
2022-09-26T16:36:23.496Z,0.80
2022-09-26T16:38:52.279Z,0.95
2022-09-26T16:41:56.232Z,0.98
2022-09-26T16:44:25.429Z,1.00
2022-09-26T16:46:54.886Z,1.23
2022-09-26T16:49:46.691Z,1.08
2022-09-26T16:52:34.327Z,1.45
2022-09-26T16:55:03.965Z,1.40
2022-09-26T16:57:33.219Z,1.70
2022-09-26T17:00:15.846Z,1.15
2022-09-26T17:02:43.411Z,1.20
2022-09-26T17:05:16.906Z,1.23
2022-09-26T17:07:44.492Z,1.23
2022-09-26T17:10:13.723Z,1.30
2022-09-26T17:12:41.347Z,2.50
2022-09-26T17:15:10.115Z,1.60
2022-09-26T17:17:38.264Z,1.60
2022-09-26T17:20:06.172Z,1.50
2022-09-26T17:22:33.634Z,1.40
2022-09-26T17:25:01.117Z,1.80
2022-09-26T17:27:33.886Z,2.20
2022-09-26T17:30:02.262Z,1.70
2022-09-26T17:32:31.700Z,1.60
2022-09-26T17:35:00.459Z,1.88
2022-09-26T17:37:28.567Z,1.50
2022-09-26T17:39:56.430Z,1.30
2022-09-26T17:42:25.082Z,1.90
2022-09-26T17:44:53.927Z,2.22
2022-09-26T17:47:21.426Z,2.60
2022-09-26T17:49:50.582Z,2.70
2022-09-26T17:52:24.509Z,2.20
2022-09-26T17:54:52.850Z,2.10
2022-09-26T17:57:24.355Z,1.70
2022-09-26T17:59:55.312Z,1.70
2022-09-26T18:02:25.428Z,1.50
2022-09-26T18:04:53.742Z,1.40
2022-09-26T18:07:22.353Z,1.25
2022-09-26T18:09:50.560Z,1.80
2022-09-26T18:12:21.407Z,1.20
2022-09-26T18:17:17.841Z,1.40
2022-09-26T18:19:46.904Z,1.60
2022-09-26T18:22:16.262Z,1.50
2022-09-26T18:24:45.285Z,1.48
2022-09-26T18:27:13.830Z,1.63
2022-09-26T18:29:42.785Z,1.40
2022-09-26T18:32:12.899Z,1.33
2022-09-26T18:34:40.315Z,1.40
2022-09-26T18:37:09.433Z,1.40
2022-09-26T18:39:37.219Z,1.38
2022-09-26T18:42:09.066Z,2.17
2022-09-26T18:44:37.182Z,2.10
2022-09-26T18:47:05.843Z,2.13
2022-09-26T18:49:34.523Z,2.00
2022-09-26T18:52:02.374Z,1.30
2022-09-26T18:54:32.086Z,1.73
2022-09-26T18:57:17.206Z,1.45
2022-09-26T18:59:45.502Z,2.25
2022-09-26T19:02:23.218Z,1.67
2022-09-26T19:04:51.298Z,1.40
2022-09-26T19:07:21.630Z,1.70
2022-09-26T19:09:51.180Z,1.27
2022-09-26T19:12:18.674Z,1.90
2022-09-26T19:14:46.145Z,1.67
2022-09-26T19:17:13.621Z,1.65
2022-09-26T19:19:41.049Z,1.58
2022-09-26T19:22:10.440Z,1.70
2022-09-26T19:24:38.924Z,1.40
2022-09-26T19:27:08.863Z,1.33
2022-09-26T19:29:39.560Z,1.80
2022-09-26T19:32:07.411Z,2.45
2022-09-26T19:34:34.970Z,1.73
2022-09-26T19:37:03.922Z,1.23
2022-09-26T19:39:31.786Z,1.60
2022-09-26T19:41:59.269Z,1.00
2022-09-26T19:44:28.075Z,1.33
2022-09-26T19:46:56.305Z,0.93
2022-09-26T19:49:24.210Z,1.30
2022-09-26T19:51:51.674Z,1.55
2022-09-26T19:54:19.591Z,3.08
2022-09-26T19:56:47.767Z,1.30
2022-09-26T19:59:17.049Z,1.50
2022-09-26T20:01:47.403Z,1.70
2022-09-26T20:04:16.493Z,1.42
2022-09-26T20:06:44.402Z,1.90
2022-09-26T20:09:15.019Z,1.85
2022-09-26T20:11:42.800Z,1.83
2022-09-26T20:14:25.386Z,1.30
2022-09-26T20:16:58.852Z,1.25
2022-09-26T20:19:31.644Z,1.52
2022-09-26T20:22:01.910Z,1.52
2022-09-26T20:24:30.039Z,1.15
2022-09-26T20:26:57.571Z,1.67
2022-09-26T20:29:25.028Z,1.23
2022-09-26T20:31:52.452Z,1.98
2022-09-26T20:34:21.796Z,1.65
2022-09-26T20:36:50.599Z,1.23
2022-09-26T20:39:19.976Z,1.30
2022-09-26T20:41:47.448Z,1.20
2022-09-26T20:44:16.246Z,1.17
2022-09-26T20:46:47.919Z,1.27
2022-09-26T20:49:16.876Z,1.10
2022-09-26T20:51:45.938Z,1.60
2022-09-26T20:54:19.206Z,1.60
2022-09-26T20:56:47.482Z,1.60
2022-09-26T20:59:14.981Z,1.77
2022-09-26T21:01:42.585Z,1.90
2022-09-26T21:04:13.562Z,1.38
2022-09-26T21:06:41.059Z,1.80
2022-09-26T21:09:13.818Z,1.27
2022-09-26T21:11:41.575Z,1.20
2022-09-26T21:14:09.067Z,1.50
2022-09-26T21:16:36.608Z,1.30
2022-09-26T21:19:05.330Z,1.02
2022-09-26T21:21:32.824Z,1.50
2022-09-26T21:24:00.796Z,1.42
2022-09-26T21:26:31.132Z,1.25
2022-09-26T21:28:58.892Z,1.48
2022-09-26T21:31:27.718Z,1.33
2022-09-26T21:33:56.332Z,1.20
2022-09-26T21:36:24.928Z,1.20
2022-09-26T21:38:53.635Z,1.30
2022-09-26T21:41:21.691Z,1.10
2022-09-26T21:43:52.326Z,1.20
2022-09-26T21:46:20.777Z,1.30
2022-09-26T21:48:49.042Z,1.10
2022-09-26T21:51:16.505Z,1.17
2022-09-26T21:53:46.111Z,1.60
2022-09-26T21:56:14.701Z,1.00
2022-09-26T21:58:43.044Z,1.10
2022-09-26T22:01:11.919Z,0.73
2022-09-26T22:03:39.444Z,1.02
2022-09-26T22:06:09.225Z,1.00
2022-09-26T22:08:36.708Z,1.20
2022-09-26T22:11:04.460Z,1.00
2022-09-26T22:13:32.964Z,1.02
2022-09-26T22:16:04.981Z,0.93
2022-09-26T22:18:35.046Z,1.30
2022-09-26T22:21:03.804Z,1.17
2022-09-26T22:23:31.508Z,1.30
2022-09-26T22:25:58.971Z,1.20
2022-09-26T22:28:26.630Z,1.10
2022-09-26T22:30:54.499Z,1.20
2022-09-26T22:33:22.591Z,1.08
2022-09-26T22:35:51.615Z,0.90
2022-09-26T22:38:19.167Z,1.10
2022-09-26T22:40:47.204Z,1.02
2022-09-26T22:43:14.728Z,0.88
2022-09-26T22:45:42.278Z,1.00
2022-09-26T22:48:09.810Z,1.05
2022-09-26T22:50:37.611Z,1.15
2022-09-26T22:53:06.394Z,1.13
2022-09-26T22:55:33.836Z,1.30
2022-09-26T22:58:01.281Z,1.00
2022-09-26T23:00:28.734Z,1.08
2022-09-26T23:02:56.241Z,1.15
2022-09-26T23:05:23.720Z,1.10
2022-09-26T23:07:53.614Z,1.05
2022-09-26T23:10:22.998Z,1.20
2022-09-26T23:12:51.027Z,1.00
2022-09-26T23:15:19.319Z,1.00
2022-09-26T23:17:47.463Z,1.23
2022-09-26T23:20:15.213Z,1.20
2022-09-26T23:22:42.663Z,1.00
2022-09-26T23:25:10.730Z,1.00
2022-09-26T23:27:39.507Z,1.00
2022-09-26T23:30:07.693Z,1.10
2022-09-26T23:32:35.099Z,1.27
2022-09-26T23:35:02.551Z,1.00
2022-09-26T23:37:31.900Z,1.08
2022-09-26T23:39:59.332Z,0.90
2022-09-26T23:42:26.752Z,1.00
2022-09-26T23:44:55.536Z,1.35
2022-09-26T23:47:22.983Z,1.52
2022-09-26T23:49:50.442Z,0.95
2022-09-26T23:52:17.909Z,1.02
2022-09-26T23:54:45.338Z,1.10
2022-09-26T23:57:12.777Z,1.10
2022-09-26T23:59:40.222Z,1.30
